sensor_id;sensor_type;location;lat;lon;timestamp;P1;durP1;ratioP1;P2;durP2;ratioP2
63975;SDS011;50167;47.958;21.780;2023-02-08T00:01:22;39.92;;;18.05;;
63975;SDS011;50167;47.958;21.780;2023-02-08T00:03:49;33.73;;;16.90;;
63975;SDS011;50167;47.958;21.780;2023-02-08T00:06:16;35.17;;;17.15;;
63975;SDS011;50167;47.958;21.780;2023-02-08T00:08:43;37.17;;;20.52;;
63975;SDS011;50167;47.958;21.780;2023-02-08T00:11:09;35.45;;;18.60;;
63975;SDS011;50167;47.958;21.780;2023-02-08T00:13:37;29.35;;;15.85;;
63975;SDS011;50167;47.958;21.780;2023-02-08T00:16:05;34.70;;;17.90;;
63975;SDS011;50167;47.958;21.780;2023-02-08T00:18:32;39.63;;;18.37;;
63975;SDS011;50167;47.958;21.780;2023-02-08T00:20:58;34.73;;;17.82;;
63975;SDS011;50167;47.958;21.780;2023-02-08T00:23:25;34.63;;;18.57;;
63975;SDS011;50167;47.958;21.780;2023-02-08T00:25:51;34.78;;;15.08;;
63975;SDS011;50167;47.958;21.780;2023-02-08T00:28:17;36.65;;;19.65;;
63975;SDS011;50167;47.958;21.780;2023-02-08T00:30:44;42.88;;;20.27;;
63975;SDS011;50167;47.958;21.780;2023-02-08T00:33:10;39.65;;;19.85;;
63975;SDS011;50167;47.958;21.780;2023-02-08T00:35:37;35.25;;;19.48;;
63975;SDS011;50167;47.958;21.780;2023-02-08T00:38:05;38.90;;;21.42;;
63975;SDS011;50167;47.958;21.780;2023-02-08T00:40:31;37.85;;;19.52;;
63975;SDS011;50167;47.958;21.780;2023-02-08T00:42:57;32.53;;;17.32;;
63975;SDS011;50167;47.958;21.780;2023-02-08T00:45:23;40.33;;;21.40;;
63975;SDS011;50167;47.958;21.780;2023-02-08T00:47:50;43.92;;;21.62;;
63975;SDS011;50167;47.958;21.780;2023-02-08T00:50:16;45.08;;;21.57;;
63975;SDS011;50167;47.958;21.780;2023-02-08T00:52:42;37.93;;;21.30;;
63975;SDS011;50167;47.958;21.780;2023-02-08T00:55:09;38.17;;;18.45;;
63975;SDS011;50167;47.958;21.780;2023-02-08T00:57:35;38.63;;;20.70;;
63975;SDS011;50167;47.958;21.780;2023-02-08T01:00:02;39.33;;;20.77;;
63975;SDS011;50167;47.958;21.780;2023-02-08T01:02:30;38.02;;;20.95;;
63975;SDS011;50167;47.958;21.780;2023-02-08T01:04:56;40.03;;;19.73;;
63975;SDS011;50167;47.958;21.780;2023-02-08T01:07:23;38.48;;;20.82;;
63975;SDS011;50167;47.958;21.780;2023-02-08T01:09:49;38.15;;;20.12;;
63975;SDS011;50167;47.958;21.780;2023-02-08T01:12:15;38.65;;;18.00;;
63975;SDS011;50167;47.958;21.780;2023-02-08T01:14:41;37.85;;;18.42;;
63975;SDS011;50167;47.958;21.780;2023-02-08T01:17:08;39.18;;;21.00;;
63975;SDS011;50167;47.958;21.780;2023-02-08T01:19:34;43.52;;;20.35;;
63975;SDS011;50167;47.958;21.780;2023-02-08T01:22:00;41.55;;;19.77;;
63975;SDS011;50167;47.958;21.780;2023-02-08T01:24:26;36.33;;;18.02;;
63975;SDS011;50167;47.958;21.780;2023-02-08T01:26:52;38.00;;;18.57;;
63975;SDS011;50167;47.958;21.780;2023-02-08T01:29:18;43.50;;;21.73;;
63975;SDS011;50167;47.958;21.780;2023-02-08T01:31:45;39.18;;;18.48;;
63975;SDS011;50167;47.958;21.780;2023-02-08T01:34:11;33.83;;;17.67;;
63975;SDS011;50167;47.958;21.780;2023-02-08T01:36:38;38.10;;;19.52;;
63975;SDS011;50167;47.958;21.780;2023-02-08T01:39:05;36.53;;;19.67;;
63975;SDS011;50167;47.958;21.780;2023-02-08T01:41:36;40.67;;;22.35;;
63975;SDS011;50167;47.958;21.780;2023-02-08T01:46:46;41.98;;;21.57;;
63975;SDS011;50167;47.958;21.780;2023-02-08T01:49:16;42.23;;;21.15;;
63975;SDS011;50167;47.958;21.780;2023-02-08T01:51:56;42.03;;;23.12;;
63975;SDS011;50167;47.958;21.780;2023-02-08T01:54:30;42.55;;;22.27;;
63975;SDS011;50167;47.958;21.780;2023-02-08T01:59:28;46.98;;;21.97;;
63975;SDS011;50167;47.958;21.780;2023-02-08T02:02:00;44.20;;;23.27;;
63975;SDS011;50167;47.958;21.780;2023-02-08T02:04:29;44.42;;;21.93;;
63975;SDS011;50167;47.958;21.780;2023-02-08T02:06:56;43.68;;;21.97;;
63975;SDS011;50167;47.958;21.780;2023-02-08T02:12:06;43.00;;;21.97;;
63975;SDS011;50167;47.958;21.780;2023-02-08T02:14:34;37.15;;;19.30;;
63975;SDS011;50167;47.958;21.780;2023-02-08T02:17:03;36.53;;;19.35;;
63975;SDS011;50167;47.958;21.780;2023-02-08T02:22:15;39.33;;;20.08;;
63975;SDS011;50167;47.958;21.780;2023-02-08T02:25:25;44.88;;;22.13;;
63975;SDS011;50167;47.958;21.780;2023-02-08T02:33:59;42.43;;;20.95;;
63975;SDS011;50167;47.958;21.780;2023-02-08T02:36:57;46.68;;;21.87;;
63975;SDS011;50167;47.958;21.780;2023-02-08T02:42:57;39.83;;;19.65;;
63975;SDS011;50167;47.958;21.780;2023-02-08T02:48:44;35.85;;;18.82;;
63975;SDS011;50167;47.958;21.780;2023-02-08T02:54:25;40.03;;;19.40;;
63975;SDS011;50167;47.958;21.780;2023-02-08T02:57:18;39.18;;;20.48;;
63975;SDS011;50167;47.958;21.780;2023-02-08T02:59:51;39.73;;;20.77;;
63975;SDS011;50167;47.958;21.780;2023-02-08T03:02:18;40.52;;;20.90;;
63975;SDS011;50167;47.958;21.780;2023-02-08T03:04:50;40.98;;;20.25;;
63975;SDS011;50167;47.958;21.780;2023-02-08T03:07:26;40.05;;;21.48;;
63975;SDS011;50167;47.958;21.780;2023-02-08T03:16:16;41.42;;;19.95;;
63975;SDS011;50167;47.958;21.780;2023-02-08T03:19:00;35.03;;;19.32;;
63975;SDS011;50167;47.958;21.780;2023-02-08T03:22:00;38.02;;;19.27;;
63975;SDS011;50167;47.958;21.780;2023-02-08T03:24:48;41.28;;;21.30;;
63975;SDS011;50167;47.958;21.780;2023-02-08T03:30:06;39.85;;;20.27;;
63975;SDS011;50167;47.958;21.780;2023-02-08T03:35:24;30.02;;;16.25;;
63975;SDS011;50167;47.958;21.780;2023-02-08T03:38:04;40.05;;;19.02;;
63975;SDS011;50167;47.958;21.780;2023-02-08T03:40:38;40.20;;;19.27;;
63975;SDS011;50167;47.958;21.780;2023-02-08T03:43:22;40.23;;;19.42;;
63975;SDS011;50167;47.958;21.780;2023-02-08T03:48:39;48.73;;;21.97;;
63975;SDS011;50167;47.958;21.780;2023-02-08T03:51:09;39.65;;;20.50;;
63975;SDS011;50167;47.958;21.780;2023-02-08T03:53:36;38.65;;;20.30;;
63975;SDS011;50167;47.958;21.780;2023-02-08T03:56:16;42.35;;;22.50;;
63975;SDS011;50167;47.958;21.780;2023-02-08T03:58:47;38.50;;;20.77;;
63975;SDS011;50167;47.958;21.780;2023-02-08T04:01:31;40.98;;;18.98;;
63975;SDS011;50167;47.958;21.780;2023-02-08T04:04:07;38.90;;;19.48;;
63975;SDS011;50167;47.958;21.780;2023-02-08T04:06:35;42.00;;;20.85;;
63975;SDS011;50167;47.958;21.780;2023-02-08T04:09:01;40.28;;;22.15;;
63975;SDS011;50167;47.958;21.780;2023-02-08T04:11:28;39.40;;;21.40;;
63975;SDS011;50167;47.958;21.780;2023-02-08T04:13:57;45.17;;;23.73;;
63975;SDS011;50167;47.958;21.780;2023-02-08T04:16:23;39.42;;;21.95;;
63975;SDS011;50167;47.958;21.780;2023-02-08T04:18:49;36.10;;;18.73;;
63975;SDS011;50167;47.958;21.780;2023-02-08T04:21:15;33.85;;;20.25;;
63975;SDS011;50167;47.958;21.780;2023-02-08T04:23:41;40.33;;;20.15;;
63975;SDS011;50167;47.958;21.780;2023-02-08T04:26:08;39.63;;;20.82;;
63975;SDS011;50167;47.958;21.780;2023-02-08T04:28:34;41.25;;;20.60;;
63975;SDS011;50167;47.958;21.780;2023-02-08T04:31:01;39.63;;;20.57;;
63975;SDS011;50167;47.958;21.780;2023-02-08T04:33:27;39.03;;;18.12;;
63975;SDS011;50167;47.958;21.780;2023-02-08T04:35:53;39.90;;;19.65;;
63975;SDS011;50167;47.958;21.780;2023-02-08T04:38:20;40.30;;;21.52;;
63975;SDS011;50167;47.958;21.780;2023-02-08T04:40:46;36.88;;;19.73;;
63975;SDS011;50167;47.958;21.780;2023-02-08T04:43:12;42.17;;;19.70;;
63975;SDS011;50167;47.958;21.780;2023-02-08T04:45:38;40.88;;;19.25;;
63975;SDS011;50167;47.958;21.780;2023-02-08T04:48:05;46.28;;;23.75;;
63975;SDS011;50167;47.958;21.780;2023-02-08T04:50:32;44.30;;;21.52;;
63975;SDS011;50167;47.958;21.780;2023-02-08T04:52:59;44.13;;;20.95;;
63975;SDS011;50167;47.958;21.780;2023-02-08T04:55:25;45.63;;;20.77;;
63975;SDS011;50167;47.958;21.780;2023-02-08T04:57:52;43.25;;;21.48;;
63975;SDS011;50167;47.958;21.780;2023-02-08T05:00:18;42.75;;;22.40;;
63975;SDS011;50167;47.958;21.780;2023-02-08T05:02:44;41.05;;;21.93;;
63975;SDS011;50167;47.958;21.780;2023-02-08T05:05:11;44.03;;;21.50;;
63975;SDS011;50167;47.958;21.780;2023-02-08T05:07:37;40.20;;;19.92;;
63975;SDS011;50167;47.958;21.780;2023-02-08T05:10:03;42.75;;;23.18;;
63975;SDS011;50167;47.958;21.780;2023-02-08T05:12:30;39.42;;;21.73;;
63975;SDS011;50167;47.958;21.780;2023-02-08T05:14:56;44.23;;;23.02;;
63975;SDS011;50167;47.958;21.780;2023-02-08T05:17:22;45.38;;;23.10;;
63975;SDS011;50167;47.958;21.780;2023-02-08T05:19:48;39.42;;;21.20;;
63975;SDS011;50167;47.958;21.780;2023-02-08T05:22:14;42.43;;;20.95;;
63975;SDS011;50167;47.958;21.780;2023-02-08T05:24:41;36.30;;;19.60;;
63975;SDS011;50167;47.958;21.780;2023-02-08T05:27:07;38.45;;;20.55;;
63975;SDS011;50167;47.958;21.780;2023-02-08T05:29:33;44.70;;;22.07;;
63975;SDS011;50167;47.958;21.780;2023-02-08T05:31:59;36.28;;;19.23;;
63975;SDS011;50167;47.958;21.780;2023-02-08T05:34:25;43.45;;;20.65;;
63975;SDS011;50167;47.958;21.780;2023-02-08T05:36:52;38.17;;;20.97;;
63975;SDS011;50167;47.958;21.780;2023-02-08T05:39:18;39.78;;;20.62;;
63975;SDS011;50167;47.958;21.780;2023-02-08T05:41:44;42.58;;;22.17;;
63975;SDS011;50167;47.958;21.780;2023-02-08T05:44:11;47.23;;;22.27;;
63975;SDS011;50167;47.958;21.780;2023-02-08T05:46:37;44.95;;;21.77;;
63975;SDS011;50167;47.958;21.780;2023-02-08T05:49:03;47.80;;;25.50;;
63975;SDS011;50167;47.958;21.780;2023-02-08T05:51:29;46.77;;;24.30;;
63975;SDS011;50167;47.958;21.780;2023-02-08T05:53:56;48.10;;;23.38;;
63975;SDS011;50167;47.958;21.780;2023-02-08T05:56:22;53.48;;;23.98;;
63975;SDS011;50167;47.958;21.780;2023-02-08T05:58:48;65.90;;;29.18;;
63975;SDS011;50167;47.958;21.780;2023-02-08T06:01:14;53.28;;;25.05;;
63975;SDS011;50167;47.958;21.780;2023-02-08T06:03:41;50.30;;;24.30;;
63975;SDS011;50167;47.958;21.780;2023-02-08T06:06:07;44.63;;;24.43;;
63975;SDS011;50167;47.958;21.780;2023-02-08T06:08:35;56.10;;;25.77;;
63975;SDS011;50167;47.958;21.780;2023-02-08T06:11:02;50.70;;;25.50;;
63975;SDS011;50167;47.958;21.780;2023-02-08T06:13:29;49.08;;;25.80;;
63975;SDS011;50167;47.958;21.780;2023-02-08T06:15:55;51.25;;;27.85;;
63975;SDS011;50167;47.958;21.780;2023-02-08T06:18:22;49.38;;;26.37;;
63975;SDS011;50167;47.958;21.780;2023-02-08T06:20:51;48.08;;;25.37;;
63975;SDS011;50167;47.958;21.780;2023-02-08T06:23:20;48.25;;;25.55;;
63975;SDS011;50167;47.958;21.780;2023-02-08T06:25:47;41.50;;;22.75;;
63975;SDS011;50167;47.958;21.780;2023-02-08T06:28:13;42.23;;;22.90;;
63975;SDS011;50167;47.958;21.780;2023-02-08T06:30:40;43.33;;;22.07;;
63975;SDS011;50167;47.958;21.780;2023-02-08T06:33:06;40.80;;;22.30;;
63975;SDS011;50167;47.958;21.780;2023-02-08T06:35:33;45.88;;;21.42;;
63975;SDS011;50167;47.958;21.780;2023-02-08T06:37:59;45.50;;;21.42;;
63975;SDS011;50167;47.958;21.780;2023-02-08T06:40:26;43.17;;;22.17;;
63975;SDS011;50167;47.958;21.780;2023-02-08T06:42:52;38.17;;;20.82;;
63975;SDS011;50167;47.958;21.780;2023-02-08T06:45:18;38.60;;;20.00;;
63975;SDS011;50167;47.958;21.780;2023-02-08T06:47:44;50.80;;;26.17;;
63975;SDS011;50167;47.958;21.780;2023-02-08T06:50:10;51.92;;;24.63;;
63975;SDS011;50167;47.958;21.780;2023-02-08T06:52:36;48.95;;;22.25;;
63975;SDS011;50167;47.958;21.780;2023-02-08T06:55:04;45.45;;;21.45;;
63975;SDS011;50167;47.958;21.780;2023-02-08T06:57:31;34.98;;;20.37;;
63975;SDS011;50167;47.958;21.780;2023-02-08T06:59:57;45.35;;;23.83;;
63975;SDS011;50167;47.958;21.780;2023-02-08T07:02:23;39.88;;;21.87;;
63975;SDS011;50167;47.958;21.780;2023-02-08T07:04:50;35.80;;;19.32;;
63975;SDS011;50167;47.958;21.780;2023-02-08T07:07:16;33.23;;;19.52;;
63975;SDS011;50167;47.958;21.780;2023-02-08T07:09:43;42.88;;;21.60;;
63975;SDS011;50167;47.958;21.780;2023-02-08T07:12:11;36.80;;;18.70;;
63975;SDS011;50167;47.958;21.780;2023-02-08T07:14:38;37.83;;;20.17;;
63975;SDS011;50167;47.958;21.780;2023-02-08T07:17:06;42.27;;;23.27;;
63975;SDS011;50167;47.958;21.780;2023-02-08T07:19:34;36.93;;;20.17;;
63975;SDS011;50167;47.958;21.780;2023-02-08T07:22:00;44.18;;;23.05;;
63975;SDS011;50167;47.958;21.780;2023-02-08T07:24:29;38.70;;;20.43;;
63975;SDS011;50167;47.958;21.780;2023-02-08T07:26:55;38.92;;;21.70;;
63975;SDS011;50167;47.958;21.780;2023-02-08T07:29:21;48.23;;;24.35;;
63975;SDS011;50167;47.958;21.780;2023-02-08T07:31:48;45.95;;;23.50;;
63975;SDS011;50167;47.958;21.780;2023-02-08T07:34:14;40.15;;;20.45;;
63975;SDS011;50167;47.958;21.780;2023-02-08T07:36:42;40.75;;;21.35;;
63975;SDS011;50167;47.958;21.780;2023-02-08T07:39:08;37.40;;;19.30;;
63975;SDS011;50167;47.958;21.780;2023-02-08T07:41:34;34.18;;;19.00;;
63975;SDS011;50167;47.958;21.780;2023-02-08T07:44:00;34.35;;;18.20;;
63975;SDS011;50167;47.958;21.780;2023-02-08T07:46:26;33.00;;;16.50;;
63975;SDS011;50167;47.958;21.780;2023-02-08T07:48:53;30.82;;;17.25;;
63975;SDS011;50167;47.958;21.780;2023-02-08T07:51:19;27.32;;;14.78;;
63975;SDS011;50167;47.958;21.780;2023-02-08T07:53:45;26.12;;;15.83;;
63975;SDS011;50167;47.958;21.780;2023-02-08T07:56:11;29.42;;;16.55;;
63975;SDS011;50167;47.958;21.780;2023-02-08T07:58:37;26.45;;;14.07;;
63975;SDS011;50167;47.958;21.780;2023-02-08T08:01:04;28.98;;;15.48;;
63975;SDS011;50167;47.958;21.780;2023-02-08T08:07:32;33.38;;;18.92;;
63975;SDS011;50167;47.958;21.780;2023-02-08T08:09:58;133.93;;;70.03;;
63975;SDS011;50167;47.958;21.780;2023-02-08T08:12:24;131.93;;;63.33;;
63975;SDS011;50167;47.958;21.780;2023-02-08T08:14:52;348.30;;;169.02;;
63975;SDS011;50167;47.958;21.780;2023-02-08T08:17:18;87.72;;;44.18;;
63975;SDS011;50167;47.958;21.780;2023-02-08T08:19:44;43.17;;;28.40;;
63975;SDS011;50167;47.958;21.780;2023-02-08T08:22:10;28.62;;;17.50;;
63975;SDS011;50167;47.958;21.780;2023-02-08T08:24:37;51.97;;;30.97;;
63975;SDS011;50167;47.958;21.780;2023-02-08T08:27:03;32.80;;;19.30;;
63975;SDS011;50167;47.958;21.780;2023-02-08T08:29:31;69.92;;;38.02;;
63975;SDS011;50167;47.958;21.780;2023-02-08T08:31:59;108.03;;;50.73;;
63975;SDS011;50167;47.958;21.780;2023-02-08T08:34:26;46.90;;;25.33;;
63975;SDS011;50167;47.958;21.780;2023-02-08T08:36:58;20.83;;;11.50;;
63975;SDS011;50167;47.958;21.780;2023-02-08T08:39:27;41.20;;;21.83;;
63975;SDS011;50167;47.958;21.780;2023-02-08T08:41:57;42.17;;;22.70;;
63975;SDS011;50167;47.958;21.780;2023-02-08T08:44:26;20.77;;;11.53;;
63975;SDS011;50167;47.958;21.780;2023-02-08T08:46:55;22.70;;;11.87;;
63975;SDS011;50167;47.958;21.780;2023-02-08T08:49:23;18.15;;;10.80;;
63975;SDS011;50167;47.958;21.780;2023-02-08T08:51:50;19.63;;;12.07;;
63975;SDS011;50167;47.958;21.780;2023-02-08T08:54:17;21.27;;;11.37;;
63975;SDS011;50167;47.958;21.780;2023-02-08T08:56:43;22.07;;;10.37;;
63975;SDS011;50167;47.958;21.780;2023-02-08T08:59:10;19.40;;;10.80;;
63975;SDS011;50167;47.958;21.780;2023-02-08T09:01:36;18.33;;;10.43;;
63975;SDS011;50167;47.958;21.780;2023-02-08T09:04:05;18.90;;;12.33;;
63975;SDS011;50167;47.958;21.780;2023-02-08T09:06:31;17.33;;;10.57;;
63975;SDS011;50167;47.958;21.780;2023-02-08T09:11:44;17.73;;;10.67;;
63975;SDS011;50167;47.958;21.780;2023-02-08T09:14:11;18.90;;;12.33;;
63975;SDS011;50167;47.958;21.780;2023-02-08T09:16:39;18.47;;;10.90;;
63975;SDS011;50167;47.958;21.780;2023-02-08T09:19:09;16.07;;;9.17;;
63975;SDS011;50167;47.958;21.780;2023-02-08T09:21:36;19.70;;;10.70;;
63975;SDS011;50167;47.958;21.780;2023-02-08T09:24:02;31.90;;;17.60;;
63975;SDS011;50167;47.958;21.780;2023-02-08T09:26:29;28.27;;;17.47;;
63975;SDS011;50167;47.958;21.780;2023-02-08T09:28:55;20.33;;;10.60;;
63975;SDS011;50167;47.958;21.780;2023-02-08T09:31:22;21.50;;;12.10;;
63975;SDS011;50167;47.958;21.780;2023-02-08T09:33:51;20.63;;;11.57;;
63975;SDS011;50167;47.958;21.780;2023-02-08T09:36:21;20.73;;;11.70;;
63975;SDS011;50167;47.958;21.780;2023-02-08T09:38:49;19.00;;;11.30;;
63975;SDS011;50167;47.958;21.780;2023-02-08T09:41:31;17.30;;;10.63;;
63975;SDS011;50167;47.958;21.780;2023-02-08T09:53:01;17.30;;;12.13;;
63975;SDS011;50167;47.958;21.780;2023-02-08T09:55:33;17.80;;;11.23;;
63975;SDS011;50167;47.958;21.780;2023-02-08T10:02:38;17.27;;;11.30;;
63975;SDS011;50167;47.958;21.780;2023-02-08T10:05:12;17.43;;;11.30;;
63975;SDS011;50167;47.958;21.780;2023-02-08T10:07:41;17.57;;;11.20;;
63975;SDS011;50167;47.958;21.780;2023-02-08T10:12:58;14.37;;;9.73;;
63975;SDS011;50167;47.958;21.780;2023-02-08T10:24:25;13.90;;;9.77;;
63975;SDS011;50167;47.958;21.780;2023-02-08T10:27:13;14.93;;;9.23;;
63975;SDS011;50167;47.958;21.780;2023-02-08T10:29:46;12.83;;;9.63;;
63975;SDS011;50167;47.958;21.780;2023-02-08T10:35:38;14.90;;;10.80;;
63975;SDS011;50167;47.958;21.780;2023-02-08T10:38:27;14.23;;;9.53;;
63975;SDS011;50167;47.958;21.780;2023-02-08T10:41:00;15.17;;;10.80;;
63975;SDS011;50167;47.958;21.780;2023-02-08T10:51:45;19.95;;;11.70;;
63975;SDS011;50167;47.958;21.780;2023-02-08T10:54:12;15.27;;;11.13;;
63975;SDS011;50167;47.958;21.780;2023-02-08T10:59:36;17.97;;;12.70;;
63975;SDS011;50167;47.958;21.780;2023-02-08T11:02:21;17.20;;;12.33;;
63975;SDS011;50167;47.958;21.780;2023-02-08T11:07:38;17.83;;;13.83;;
63975;SDS011;50167;47.958;21.780;2023-02-08T11:12:58;17.33;;;11.83;;
63975;SDS011;50167;47.958;21.780;2023-02-08T11:15:39;16.57;;;11.40;;
63975;SDS011;50167;47.958;21.780;2023-02-08T11:21:08;22.85;;;16.10;;
63975;SDS011;50167;47.958;21.780;2023-02-08T11:23:58;21.73;;;16.30;;
63975;SDS011;50167;47.958;21.780;2023-02-08T11:26:37;19.55;;;14.05;;
63975;SDS011;50167;47.958;21.780;2023-02-08T11:29:18;16.97;;;12.97;;
63975;SDS011;50167;47.958;21.780;2023-02-08T11:34:31;18.73;;;13.70;;
63975;SDS011;50167;47.958;21.780;2023-02-08T11:39:51;17.77;;;12.67;;
63975;SDS011;50167;47.958;21.780;2023-02-08T11:42:24;17.33;;;13.00;;
63975;SDS011;50167;47.958;21.780;2023-02-08T11:44:54;17.12;;;12.25;;
63975;SDS011;50167;47.958;21.780;2023-02-08T11:47:30;21.07;;;14.30;;
63975;SDS011;50167;47.958;21.780;2023-02-08T11:50:06;21.20;;;15.33;;
63975;SDS011;50167;47.958;21.780;2023-02-08T11:52:37;18.97;;;14.37;;
63975;SDS011;50167;47.958;21.780;2023-02-08T11:55:12;29.10;;;20.33;;
63975;SDS011;50167;47.958;21.780;2023-02-08T11:57:52;19.77;;;13.40;;
63975;SDS011;50167;47.958;21.780;2023-02-08T12:00:59;18.40;;;13.40;;
63975;SDS011;50167;47.958;21.780;2023-02-08T12:03:36;17.97;;;12.40;;
63975;SDS011;50167;47.958;21.780;2023-02-08T12:15:01;24.03;;;17.03;;
63975;SDS011;50167;47.958;21.780;2023-02-08T12:20:36;18.33;;;13.77;;
63975;SDS011;50167;47.958;21.780;2023-02-08T12:41:40;16.82;;;12.65;;
63975;SDS011;50167;47.958;21.780;2023-02-08T12:52:56;20.62;;;14.55;;
63975;SDS011;50167;47.958;21.780;2023-02-08T13:00:55;24.00;;;16.50;;
63975;SDS011;50167;47.958;21.780;2023-02-08T13:03:39;19.43;;;13.23;;
63975;SDS011;50167;47.958;21.780;2023-02-08T13:06:21;31.70;;;22.27;;
63975;SDS011;50167;47.958;21.780;2023-02-08T13:08:52;30.53;;;22.87;;
63975;SDS011;50167;47.958;21.780;2023-02-08T13:11:43;20.53;;;14.37;;
63975;SDS011;50167;47.958;21.780;2023-02-08T13:16:57;22.43;;;15.90;;
63975;SDS011;50167;47.958;21.780;2023-02-08T13:19:40;23.83;;;16.73;;
63975;SDS011;50167;47.958;21.780;2023-02-08T13:22:36;17.73;;;12.43;;
63975;SDS011;50167;47.958;21.780;2023-02-08T13:25:06;20.47;;;14.50;;
63975;SDS011;50167;47.958;21.780;2023-02-08T13:27:43;16.37;;;13.17;;
63975;SDS011;50167;47.958;21.780;2023-02-08T13:30:20;16.00;;;12.23;;
63975;SDS011;50167;47.958;21.780;2023-02-08T13:32:45;18.80;;;13.40;;
63975;SDS011;50167;47.958;21.780;2023-02-08T13:35:18;17.13;;;12.43;;
63975;SDS011;50167;47.958;21.780;2023-02-08T13:37:52;19.13;;;13.67;;
63975;SDS011;50167;47.958;21.780;2023-02-08T13:40:34;24.13;;;16.23;;
63975;SDS011;50167;47.958;21.780;2023-02-08T13:45:57;18.70;;;13.63;;
63975;SDS011;50167;47.958;21.780;2023-02-08T13:48:25;17.90;;;13.47;;
63975;SDS011;50167;47.958;21.780;2023-02-08T13:50:55;20.33;;;14.33;;
63975;SDS011;50167;47.958;21.780;2023-02-08T13:56:09;20.00;;;14.57;;
63975;SDS011;50167;47.958;21.780;2023-02-08T14:04:35;35.57;;;20.87;;
63975;SDS011;50167;47.958;21.780;2023-02-08T14:06:36;19.13;;;13.70;;
63975;SDS011;50167;47.958;21.780;2023-02-08T14:12:08;18.80;;;11.50;;
63975;SDS011;50167;47.958;21.780;2023-02-08T14:14:39;18.93;;;12.67;;
63975;SDS011;50167;47.958;21.780;2023-02-08T14:17:27;24.47;;;16.37;;
63975;SDS011;50167;47.958;21.780;2023-02-08T14:20:01;21.53;;;13.83;;
63975;SDS011;50167;47.958;21.780;2023-02-08T14:22:30;21.97;;;12.83;;
63975;SDS011;50167;47.958;21.780;2023-02-08T14:25:06;20.20;;;12.60;;
63975;SDS011;50167;47.958;21.780;2023-02-08T14:27:49;25.23;;;14.30;;
63975;SDS011;50167;47.958;21.780;2023-02-08T14:30:30;24.60;;;14.40;;
63975;SDS011;50167;47.958;21.780;2023-02-08T14:39:47;13.17;;;8.10;;
63975;SDS011;50167;47.958;21.780;2023-02-08T14:42:52;12.77;;;9.00;;
63975;SDS011;50167;47.958;21.780;2023-02-08T14:45:04;17.23;;;10.83;;
63975;SDS011;50167;47.958;21.780;2023-02-08T14:47:50;19.30;;;10.80;;
63975;SDS011;50167;47.958;21.780;2023-02-08T14:50:14;19.30;;;10.77;;
63975;SDS011;50167;47.958;21.780;2023-02-08T14:53:00;21.90;;;12.47;;
63975;SDS011;50167;47.958;21.780;2023-02-08T14:58:25;17.83;;;10.13;;
63975;SDS011;50167;47.958;21.780;2023-02-08T15:00:59;17.30;;;10.33;;
63975;SDS011;50167;47.958;21.780;2023-02-08T15:06:08;26.10;;;13.53;;
63975;SDS011;50167;47.958;21.780;2023-02-08T15:08:52;21.33;;;11.50;;
63975;SDS011;50167;47.958;21.780;2023-02-08T15:11:21;21.93;;;12.87;;
63975;SDS011;50167;47.958;21.780;2023-02-08T15:13:55;30.27;;;17.93;;
63975;SDS011;50167;47.958;21.780;2023-02-08T15:16:32;34.98;;;19.30;;
63975;SDS011;50167;47.958;21.780;2023-02-08T15:19:08;40.53;;;21.87;;
63975;SDS011;50167;47.958;21.780;2023-02-08T15:21:48;44.17;;;23.03;;
63975;SDS011;50167;47.958;21.780;2023-02-08T15:24:15;94.03;;;45.33;;
63975;SDS011;50167;47.958;21.780;2023-02-08T15:26:51;101.37;;;47.33;;
63975;SDS011;50167;47.958;21.780;2023-02-08T15:29:24;64.03;;;30.97;;
63975;SDS011;50167;47.958;21.780;2023-02-08T15:31:54;35.27;;;18.53;;
63975;SDS011;50167;47.958;21.780;2023-02-08T15:34:24;48.03;;;23.80;;
63975;SDS011;50167;47.958;21.780;2023-02-08T15:36:54;44.42;;;20.88;;
63975;SDS011;50167;47.958;21.780;2023-02-08T15:41:59;35.83;;;17.70;;
63975;SDS011;50167;47.958;21.780;2023-02-08T15:44:26;38.83;;;19.63;;
63975;SDS011;50167;47.958;21.780;2023-02-08T15:46:56;39.60;;;20.37;;
63975;SDS011;50167;47.958;21.780;2023-02-08T15:49:36;51.58;;;21.17;;
63975;SDS011;50167;47.958;21.780;2023-02-08T15:52:06;46.27;;;22.07;;
63975;SDS011;50167;47.958;21.780;2023-02-08T15:54:33;44.43;;;22.10;;
63975;SDS011;50167;47.958;21.780;2023-02-08T15:57:05;39.43;;;21.57;;
63975;SDS011;50167;47.958;21.780;2023-02-08T15:59:32;41.30;;;20.67;;
63975;SDS011;50167;47.958;21.780;2023-02-08T16:02:20;48.78;;;24.07;;
63975;SDS011;50167;47.958;21.780;2023-02-08T16:04:43;41.80;;;22.13;;
63975;SDS011;50167;47.958;21.780;2023-02-08T16:10:04;40.73;;;21.67;;
63975;SDS011;50167;47.958;21.780;2023-02-08T16:12:32;38.47;;;20.73;;
63975;SDS011;50167;47.958;21.780;2023-02-08T16:15:00;59.03;;;24.50;;
63975;SDS011;50167;47.958;21.780;2023-02-08T16:20:20;50.25;;;25.88;;
63975;SDS011;50167;47.958;21.780;2023-02-08T16:25:33;71.50;;;30.72;;
63975;SDS011;50167;47.958;21.780;2023-02-08T16:28:21;76.00;;;32.65;;
63975;SDS011;50167;47.958;21.780;2023-02-08T16:30:57;62.25;;;30.90;;
63975;SDS011;50167;47.958;21.780;2023-02-08T16:33:26;59.83;;;28.23;;
63975;SDS011;50167;47.958;21.780;2023-02-08T16:35:56;57.60;;;27.07;;
63975;SDS011;50167;47.958;21.780;2023-02-08T16:38:25;62.85;;;26.52;;
63975;SDS011;50167;47.958;21.780;2023-02-08T16:40:52;58.78;;;26.75;;
63975;SDS011;50167;47.958;21.780;2023-02-08T16:43:29;46.05;;;24.55;;
63975;SDS011;50167;47.958;21.780;2023-02-08T16:46:31;56.95;;;28.40;;
63975;SDS011;50167;47.958;21.780;2023-02-08T16:48:47;59.77;;;28.07;;
63975;SDS011;50167;47.958;21.780;2023-02-08T16:51:21;52.98;;;26.12;;
63975;SDS011;50167;47.958;21.780;2023-02-08T16:53:55;75.95;;;29.70;;
63975;SDS011;50167;47.958;21.780;2023-02-08T16:56:26;54.08;;;26.07;;
63975;SDS011;50167;47.958;21.780;2023-02-08T16:58:53;57.20;;;29.50;;
63975;SDS011;50167;47.958;21.780;2023-02-08T17:01:20;82.82;;;41.63;;
63975;SDS011;50167;47.958;21.780;2023-02-08T17:03:49;90.80;;;44.40;;
63975;SDS011;50167;47.958;21.780;2023-02-08T17:09:00;121.90;;;60.55;;
63975;SDS011;50167;47.958;21.780;2023-02-08T17:11:30;119.95;;;57.83;;
63975;SDS011;50167;47.958;21.780;2023-02-08T17:13:56;114.22;;;56.40;;
63975;SDS011;50167;47.958;21.780;2023-02-08T17:16:23;108.87;;;53.65;;
63975;SDS011;50167;47.958;21.780;2023-02-08T17:18:52;109.60;;;52.05;;
63975;SDS011;50167;47.958;21.780;2023-02-08T17:21:19;124.47;;;58.60;;
63975;SDS011;50167;47.958;21.780;2023-02-08T17:23:46;120.35;;;56.02;;
63975;SDS011;50167;47.958;21.780;2023-02-08T17:28:47;126.12;;;60.43;;
63975;SDS011;50167;47.958;21.780;2023-02-08T17:31:14;223.78;;;101.50;;
63975;SDS011;50167;47.958;21.780;2023-02-08T17:33:41;180.50;;;82.02;;
63975;SDS011;50167;47.958;21.780;2023-02-08T17:36:08;139.72;;;63.05;;
63975;SDS011;50167;47.958;21.780;2023-02-08T17:38:36;96.85;;;46.28;;